sensor_id;sensor_type;location;lat;lon;timestamp;P1;durP1;ratioP1;P2;durP2;ratioP2
20314;SDS011;10315;50.958;13.080;2024-01-07T00:06:40;69.23;;;21.87;;
20314;SDS011;10315;50.958;13.080;2024-01-07T00:16:43;63.30;;;21.83;;
20314;SDS011;10315;50.958;13.080;2024-01-07T00:26:45;54.70;;;20.07;;
20314;SDS011;10315;50.958;13.080;2024-01-07T00:36:48;62.97;;;22.63;;
20314;SDS011;10315;50.958;13.080;2024-01-07T00:46:49;73.10;;;23.03;;
20314;SDS011;10315;50.958;13.080;2024-01-07T00:56:52;69.87;;;25.33;;
20314;SDS011;10315;50.958;13.080;2024-01-07T01:06:54;68.77;;;25.43;;
20314;SDS011;10315;50.958;13.080;2024-01-07T01:16:57;83.20;;;22.67;;
20314;SDS011;10315;50.958;13.080;2024-01-07T01:26:58;77.00;;;23.00;;
20314;SDS011;10315;50.958;13.080;2024-01-07T01:37:02;58.53;;;18.73;;
20314;SDS011;10315;50.958;13.080;2024-01-07T01:47:04;70.10;;;23.10;;
20314;SDS011;10315;50.958;13.080;2024-01-07T01:57:08;58.60;;;21.73;;
20314;SDS011;10315;50.958;13.080;2024-01-07T02:07:17;64.90;;;24.10;;
20314;SDS011;10315;50.958;13.080;2024-01-07T02:17:20;66.77;;;20.50;;
20314;SDS011;10315;50.958;13.080;2024-01-07T02:27:23;49.80;;;18.40;;
20314;SDS011;10315;50.958;13.080;2024-01-07T02:37:25;63.70;;;21.60;;
20314;SDS011;10315;50.958;13.080;2024-01-07T02:47:28;53.20;;;21.23;;
20314;SDS011;10315;50.958;13.080;2024-01-07T02:57:29;50.57;;;19.33;;
20314;SDS011;10315;50.958;13.080;2024-01-07T03:07:32;56.33;;;19.33;;
20314;SDS011;10315;50.958;13.080;2024-01-07T03:17:34;52.07;;;17.77;;
20314;SDS011;10315;50.958;13.080;2024-01-07T03:27:37;64.90;;;21.47;;
20314;SDS011;10315;50.958;13.080;2024-01-07T03:37:52;62.17;;;21.57;;
20314;SDS011;10315;50.958;13.080;2024-01-07T03:47:55;58.50;;;20.37;;
20314;SDS011;10315;50.958;13.080;2024-01-07T03:57:57;56.67;;;19.30;;
20314;SDS011;10315;50.958;13.080;2024-01-07T04:08:00;52.30;;;17.97;;
20314;SDS011;10315;50.958;13.080;2024-01-07T04:18:02;53.63;;;16.63;;
20314;SDS011;10315;50.958;13.080;2024-01-07T04:28:05;54.23;;;16.53;;
20314;SDS011;10315;50.958;13.080;2024-01-07T04:38:07;47.37;;;15.40;;
20314;SDS011;10315;50.958;13.080;2024-01-07T04:48:10;32.63;;;13.87;;
20314;SDS011;10315;50.958;13.080;2024-01-07T04:58:11;35.60;;;13.67;;
20314;SDS011;10315;50.958;13.080;2024-01-07T05:08:14;29.63;;;11.47;;
20314;SDS011;10315;50.958;13.080;2024-01-07T05:18:16;36.33;;;11.93;;
20314;SDS011;10315;50.958;13.080;2024-01-07T05:28:19;33.90;;;11.97;;
20314;SDS011;10315;50.958;13.080;2024-01-07T05:38:21;31.57;;;11.67;;
20314;SDS011;10315;50.958;13.080;2024-01-07T05:48:24;24.00;;;9.67;;
20314;SDS011;10315;50.958;13.080;2024-01-07T05:58:25;29.23;;;10.47;;
20314;SDS011;10315;50.958;13.080;2024-01-07T06:08:28;31.23;;;9.67;;
20314;SDS011;10315;50.958;13.080;2024-01-07T06:18:30;30.07;;;10.73;;
20314;SDS011;10315;50.958;13.080;2024-01-07T06:28:32;25.70;;;9.13;;
20314;SDS011;10315;50.958;13.080;2024-01-07T06:38:34;27.83;;;10.33;;
20314;SDS011;10315;50.958;13.080;2024-01-07T06:48:37;23.63;;;9.40;;
20314;SDS011;10315;50.958;13.080;2024-01-07T06:58:38;20.77;;;8.23;;
20314;SDS011;10315;50.958;13.080;2024-01-07T07:08:41;20.03;;;7.40;;
20314;SDS011;10315;50.958;13.080;2024-01-07T07:18:43;20.17;;;6.93;;
20314;SDS011;10315;50.958;13.080;2024-01-07T07:28:46;13.97;;;6.40;;
20314;SDS011;10315;50.958;13.080;2024-01-07T07:38:48;17.20;;;8.20;;
20314;SDS011;10315;50.958;13.080;2024-01-07T07:48:51;15.53;;;7.10;;
20314;SDS011;10315;50.958;13.080;2024-01-07T07:58:52;21.57;;;7.67;;
20314;SDS011;10315;50.958;13.080;2024-01-07T08:08:55;13.10;;;6.93;;
20314;SDS011;10315;50.958;13.080;2024-01-07T08:18:57;8.60;;;5.33;;
20314;SDS011;10315;50.958;13.080;2024-01-07T08:29:00;10.13;;;5.53;;
20314;SDS011;10315;50.958;13.080;2024-01-07T08:39:01;11.77;;;5.07;;
20314;SDS011;10315;50.958;13.080;2024-01-07T08:49:04;10.17;;;5.00;;
20314;SDS011;10315;50.958;13.080;2024-01-07T08:59:06;11.83;;;5.13;;
20314;SDS011;10315;50.958;13.080;2024-01-07T09:09:09;8.87;;;5.03;;
20314;SDS011;10315;50.958;13.080;2024-01-07T09:19:11;7.57;;;4.33;;
20314;SDS011;10315;50.958;13.080;2024-01-07T09:29:14;6.97;;;3.90;;
20314;SDS011;10315;50.958;13.080;2024-01-07T09:39:16;9.43;;;3.73;;
20314;SDS011;10315;50.958;13.080;2024-01-07T09:49:19;6.57;;;3.47;;
20314;SDS011;10315;50.958;13.080;2024-01-07T09:59:20;8.43;;;3.80;;
20314;SDS011;10315;50.958;13.080;2024-01-07T10:09:23;7.03;;;3.67;;
20314;SDS011;10315;50.958;13.080;2024-01-07T10:19:26;6.03;;;3.30;;
20314;SDS011;10315;50.958;13.080;2024-01-07T10:29:29;4.77;;;2.80;;
20314;SDS011;10315;50.958;13.080;2024-01-07T10:39:30;4.67;;;2.87;;
20314;SDS011;10315;50.958;13.080;2024-01-07T10:49:35;7.73;;;3.40;;
20314;SDS011;10315;50.958;13.080;2024-01-07T10:59:37;7.43;;;2.40;;
20314;SDS011;10315;50.958;13.080;2024-01-07T11:09:43;4.83;;;2.70;;
20314;SDS011;10315;50.958;13.080;2024-01-07T11:19:49;5.57;;;2.63;;
20314;SDS011;10315;50.958;13.080;2024-01-07T11:29:56;4.37;;;2.87;;
20314;SDS011;10315;50.958;13.080;2024-01-07T11:39:58;4.50;;;2.47;;
20314;SDS011;10315;50.958;13.080;2024-01-07T11:50:01;3.57;;;2.33;;
20314;SDS011;10315;50.958;13.080;2024-01-07T12:00:04;3.33;;;2.33;;
20314;SDS011;10315;50.958;13.080;2024-01-07T12:10:08;3.73;;;2.60;;
20314;SDS011;10315;50.958;13.080;2024-01-07T12:20:11;4.67;;;2.10;;
20314;SDS011;10315;50.958;13.080;2024-01-07T12:30:17;3.33;;;2.37;;
20314;SDS011;10315;50.958;13.080;2024-01-07T12:40:19;3.57;;;2.67;;
20314;SDS011;10315;50.958;13.080;2024-01-07T12:50:22;5.73;;;2.50;;
20314;SDS011;10315;50.958;13.080;2024-01-07T13:00:27;3.37;;;2.47;;
20314;SDS011;10315;50.958;13.080;2024-01-07T13:10:30;4.07;;;2.03;;
20314;SDS011;10315;50.958;13.080;2024-01-07T13:20:32;4.77;;;2.10;;
20314;SDS011;10315;50.958;13.080;2024-01-07T13:30:36;4.90;;;2.60;;
20314;SDS011;10315;50.958;13.080;2024-01-07T13:40:39;2.53;;;1.80;;
20314;SDS011;10315;50.958;13.080;2024-01-07T13:50:42;7.23;;;2.30;;
20314;SDS011;10315;50.958;13.080;2024-01-07T14:00:45;3.10;;;2.10;;
20314;SDS011;10315;50.958;13.080;2024-01-07T14:10:48;3.57;;;2.10;;
20314;SDS011;10315;50.958;13.080;2024-01-07T14:20:50;3.10;;;2.20;;
20314;SDS011;10315;50.958;13.080;2024-01-07T14:30:53;3.73;;;2.10;;
20314;SDS011;10315;50.958;13.080;2024-01-07T14:40:54;3.57;;;2.10;;
20314;SDS011;10315;50.958;13.080;2024-01-07T14:50:58;3.07;;;2.20;;
20314;SDS011;10315;50.958;13.080;2024-01-07T15:00:59;5.50;;;2.60;;
20314;SDS011;10315;50.958;13.080;2024-01-07T15:11:03;3.63;;;2.47;;
20314;SDS011;10315;50.958;13.080;2024-01-07T15:21:05;3.33;;;1.87;;
20314;SDS011;10315;50.958;13.080;2024-01-07T15:31:10;2.90;;;2.33;;
20314;SDS011;10315;50.958;13.080;2024-01-07T15:41:11;2.63;;;2.30;;
20314;SDS011;10315;50.958;13.080;2024-01-07T15:51:14;3.17;;;2.07;;
20314;SDS011;10315;50.958;13.080;2024-01-07T16:01:16;3.17;;;2.13;;
20314;SDS011;10315;50.958;13.080;2024-01-07T16:11:19;3.17;;;2.30;;
20314;SDS011;10315;50.958;13.080;2024-01-07T16:21:20;2.87;;;2.00;;
20314;SDS011;10315;50.958;13.080;2024-01-07T16:31:23;3.37;;;2.13;;
20314;SDS011;10315;50.958;13.080;2024-01-07T16:41:25;5.00;;;2.83;;
20314;SDS011;10315;50.958;13.080;2024-01-07T16:51:28;4.93;;;2.50;;
20314;SDS011;10315;50.958;13.080;2024-01-07T17:01:29;5.23;;;2.53;;
20314;SDS011;10315;50.958;13.080;2024-01-07T17:11:32;2.27;;;2.03;;
20314;SDS011;10315;50.958;13.080;2024-01-07T17:21:34;4.97;;;2.77;;
20314;SDS011;10315;50.958;13.080;2024-01-07T17:31:37;6.30;;;3.23;;
20314;SDS011;10315;50.958;13.080;2024-01-07T17:41:38;4.20;;;3.07;;
20314;SDS011;10315;50.958;13.080;2024-01-07T17:51:42;5.33;;;3.33;;
20314;SDS011;10315;50.958;13.080;2024-01-07T18:01:44;3.10;;;1.97;;
20314;SDS011;10315;50.958;13.080;2024-01-07T18:11:47;4.67;;;2.90;;
20314;SDS011;10315;50.958;13.080;2024-01-07T18:21:49;6.37;;;3.73;;
20314;SDS011;10315;50.958;13.080;2024-01-07T18:31:52;7.33;;;3.70;;
20314;SDS011;10315;50.958;13.080;2024-01-07T18:41:53;5.23;;;3.67;;
20314;SDS011;10315;50.958;13.080;2024-01-07T18:51:57;9.20;;;3.40;;
20314;SDS011;10315;50.958;13.080;2024-01-07T19:01:58;6.27;;;3.43;;
20314;SDS011;10315;50.958;13.080;2024-01-07T19:12:03;6.20;;;3.97;;
20314;SDS011;10315;50.958;13.080;2024-01-07T19:22:05;5.37;;;3.20;;
20314;SDS011;10315;50.958;13.080;2024-01-07T19:32:09;6.60;;;3.93;;
20314;SDS011;10315;50.958;13.080;2024-01-07T19:42:11;7.90;;;4.00;;
20314;SDS011;10315;50.958;13.080;2024-01-07T19:52:14;8.87;;;4.33;;
20314;SDS011;10315;50.958;13.080;2024-01-07T20:02:16;3.87;;;2.17;;
20314;SDS011;10315;50.958;13.080;2024-01-07T20:12:19;3.73;;;2.50;;
20314;SDS011;10315;50.958;13.080;2024-01-07T20:22:20;6.77;;;2.50;;
20314;SDS011;10315;50.958;13.080;2024-01-07T20:32:23;6.43;;;2.87;;
20314;SDS011;10315;50.958;13.080;2024-01-07T20:42:25;2.93;;;2.13;;
20314;SDS011;10315;50.958;13.080;2024-01-07T20:52:28;3.97;;;1.93;;
20314;SDS011;10315;50.958;13.080;2024-01-07T21:02:29;2.60;;;1.90;;
20314;SDS011;10315;50.958;13.080;2024-01-07T21:12:32;4.53;;;2.00;;
20314;SDS011;10315;50.958;13.080;2024-01-07T21:22:34;3.83;;;2.20;;
20314;SDS011;10315;50.958;13.080;2024-01-07T21:32:37;4.90;;;2.80;;
20314;SDS011;10315;50.958;13.080;2024-01-07T21:42:39;3.77;;;1.80;;
20314;SDS011;10315;50.958;13.080;2024-01-07T21:52:51;3.20;;;2.20;;
20314;SDS011;10315;50.958;13.080;2024-01-07T22:02:54;6.77;;;3.60;;
20314;SDS011;10315;50.958;13.080;2024-01-07T22:12:57;4.73;;;2.40;;
20314;SDS011;10315;50.958;13.080;2024-01-07T22:22:59;3.93;;;2.90;;
20314;SDS011;10315;50.958;13.080;2024-01-07T22:33:02;4.87;;;2.80;;
20314;SDS011;10315;50.958;13.080;2024-01-07T22:43:04;5.53;;;3.50;;
20314;SDS011;10315;50.958;13.080;2024-01-07T22:53:06;5.83;;;3.40;;
20314;SDS011;10315;50.958;13.080;2024-01-07T23:03:08;5.50;;;2.93;;
20314;SDS011;10315;50.958;13.080;2024-01-07T23:13:12;5.90;;;3.03;;
20314;SDS011;10315;50.958;13.080;2024-01-07T23:23:13;4.60;;;2.67;;
20314;SDS011;10315;50.958;13.080;2024-01-07T23:33:16;4.67;;;3.17;;
20314;SDS011;10315;50.958;13.080;2024-01-07T23:43:18;7.47;;;3.37;;
20314;SDS011;10315;50.958;13.080;2024-01-07T23:53:21;3.90;;;3.27;;
